sensor_id;sensor_type;location;lat;lon;timestamp;pressure;altitude;pressure_sealevel;temperature;humidity
61136;BME280;47021;51.340;12.432;2022-07-29T00:02:21;100309.00;;;21.08;42.55
61136;BME280;47021;51.340;12.432;2022-07-29T00:04:46;100313.22;;;21.24;42.38
61136;BME280;47021;51.340;12.432;2022-07-29T00:07:11;100312.44;;;21.30;42.42
61136;BME280;47021;51.340;12.432;2022-07-29T00:09:39;100311.75;;;21.00;43.32
61136;BME280;47021;51.340;12.432;2022-07-29T00:12:12;100296.84;;;21.21;42.50
61136;BME280;47021;51.340;12.432;2022-07-29T00:14:37;100298.91;;;20.83;43.56
61136;BME280;47021;51.340;12.432;2022-07-29T00:17:03;100293.66;;;20.68;43.63
61136;BME280;47021;51.340;12.432;2022-07-29T00:19:43;100283.97;;;20.82;43.94
61136;BME280;47021;51.340;12.432;2022-07-29T00:22:09;100278.63;;;20.96;43.67
61136;BME280;47021;51.340;12.432;2022-07-29T00:24:34;100282.41;;;20.87;43.55
61136;BME280;47021;51.340;12.432;2022-07-29T00:27:06;100274.19;;;20.82;43.59
61136;BME280;47021;51.340;12.432;2022-07-29T00:29:45;100264.66;;;20.67;44.14
61136;BME280;47021;51.340;12.432;2022-07-29T00:32:10;100255.25;;;20.85;43.59
61136;BME280;47021;51.340;12.432;2022-07-29T00:34:37;100258.78;;;20.71;44.20
61136;BME280;47021;51.340;12.432;2022-07-29T00:37:04;100251.06;;;20.55;43.70
61136;BME280;47021;51.340;12.432;2022-07-29T00:39:31;100249.53;;;20.46;44.71
61136;BME280;47021;51.340;12.432;2022-07-29T00:42:03;100244.50;;;20.51;44.42
61136;BME280;47021;51.340;12.432;2022-07-29T00:44:29;100250.56;;;20.66;44.34
61136;BME280;47021;51.340;12.432;2022-07-29T00:47:00;100238.41;;;20.57;43.88
61136;BME280;47021;51.340;12.432;2022-07-29T00:49:27;100229.88;;;20.40;44.77
61136;BME280;47021;51.340;12.432;2022-07-29T00:52:01;100229.44;;;20.58;44.22
61136;BME280;47021;51.340;12.432;2022-07-29T00:54:26;100232.22;;;20.50;44.30
61136;BME280;47021;51.340;12.432;2022-07-29T00:57:01;100226.03;;;20.64;44.07
61136;BME280;47021;51.340;12.432;2022-07-29T00:59:28;100225.22;;;20.85;43.64
61136;BME280;47021;51.340;12.432;2022-07-29T01:01:54;100228.59;;;20.79;43.41
61136;BME280;47021;51.340;12.432;2022-07-29T01:04:20;100225.00;;;20.86;44.01
61136;BME280;47021;51.340;12.432;2022-07-29T01:06:47;100226.09;;;20.92;43.44
61136;BME280;47021;51.340;12.432;2022-07-29T01:09:14;100224.63;;;20.89;43.44
61136;BME280;47021;51.340;12.432;2022-07-29T01:11:39;100223.13;;;20.80;44.14
61136;BME280;47021;51.340;12.432;2022-07-29T01:14:06;100222.63;;;20.70;44.33
61136;BME280;47021;51.340;12.432;2022-07-29T01:16:33;100230.84;;;20.75;44.31
61136;BME280;47021;51.340;12.432;2022-07-29T01:21:59;100230.44;;;20.36;44.99
61136;BME280;47021;51.340;12.432;2022-07-29T01:30:22;100222.47;;;20.36;44.83
61136;BME280;47021;51.340;12.432;2022-07-29T01:32:56;100218.13;;;20.14;45.91
61136;BME280;47021;51.340;12.432;2022-07-29T01:35:28;100216.53;;;20.19;45.59
61136;BME280;47021;51.340;12.432;2022-07-29T01:38:08;100217.47;;;20.26;45.46
61136;BME280;47021;51.340;12.432;2022-07-29T01:40:44;100216.44;;;20.42;45.13
61136;BME280;47021;51.340;12.432;2022-07-29T01:43:14;100213.38;;;20.45;45.31
61136;BME280;47021;51.340;12.432;2022-07-29T01:45:59;100204.78;;;20.07;45.50
61136;BME280;47021;51.340;12.432;2022-07-29T01:48:46;100206.56;;;19.86;46.12
61136;BME280;47021;51.340;12.432;2022-07-29T01:51:23;100212.00;;;20.13;45.97
61136;BME280;47021;51.340;12.432;2022-07-29T01:54:08;100205.91;;;19.98;46.40
61136;BME280;47021;51.340;12.432;2022-07-29T01:56:37;100208.50;;;20.13;45.51
61136;BME280;47021;51.340;12.432;2022-07-29T01:59:06;100214.38;;;20.08;45.70
61136;BME280;47021;51.340;12.432;2022-07-29T02:01:33;100198.94;;;20.12;46.10
61136;BME280;47021;51.340;12.432;2022-07-29T02:04:04;100207.25;;;20.09;46.08
61136;BME280;47021;51.340;12.432;2022-07-29T02:06:33;100199.72;;;20.27;45.43
61136;BME280;47021;51.340;12.432;2022-07-29T02:09:02;100202.22;;;20.14;45.95
61136;BME280;47021;51.340;12.432;2022-07-29T02:11:31;100207.56;;;19.70;46.93
61136;BME280;47021;51.340;12.432;2022-07-29T02:14:04;100208.03;;;19.73;47.17
61136;BME280;47021;51.340;12.432;2022-07-29T02:16:32;100197.41;;;19.88;46.52
61136;BME280;47021;51.340;12.432;2022-07-29T02:19:05;100203.47;;;19.67;47.09
61136;BME280;47021;51.340;12.432;2022-07-29T02:21:32;100206.19;;;19.74;46.71
61136;BME280;47021;51.340;12.432;2022-07-29T02:24:00;100201.81;;;19.66;46.91
61136;BME280;47021;51.340;12.432;2022-07-29T02:26:27;100196.84;;;19.93;46.47
61136;BME280;47021;51.340;12.432;2022-07-29T02:28:56;100199.63;;;19.70;46.76
61136;BME280;47021;51.340;12.432;2022-07-29T02:31:33;100199.00;;;19.68;46.66
61136;BME280;47021;51.340;12.432;2022-07-29T02:34:02;100192.50;;;19.56;47.46
61136;BME280;47021;51.340;12.432;2022-07-29T02:36:36;100196.34;;;19.53;47.35
61136;BME280;47021;51.340;12.432;2022-07-29T02:39:03;100192.31;;;19.57;47.31
61136;BME280;47021;51.340;12.432;2022-07-29T02:41:49;100197.81;;;19.70;46.75
61136;BME280;47021;51.340;12.432;2022-07-29T02:44:20;100201.53;;;19.76;46.74
61136;BME280;47021;51.340;12.432;2022-07-29T02:46:52;100198.09;;;19.76;47.17
61136;BME280;47021;51.340;12.432;2022-07-29T02:49:35;100192.66;;;19.84;47.03
61136;BME280;47021;51.340;12.432;2022-07-29T02:52:04;100186.47;;;19.62;47.80
61136;BME280;47021;51.340;12.432;2022-07-29T02:54:44;100181.50;;;20.03;46.11
61136;BME280;47021;51.340;12.432;2022-07-29T03:00:27;100183.88;;;19.98;46.69
61136;BME280;47021;51.340;12.432;2022-07-29T03:02:59;100185.19;;;19.58;47.27
61136;BME280;47021;51.340;12.432;2022-07-29T03:05:26;100179.34;;;19.77;47.17
61136;BME280;47021;51.340;12.432;2022-07-29T03:07:58;100184.91;;;19.67;47.42
61136;BME280;47021;51.340;12.432;2022-07-29T03:10:26;100185.69;;;19.97;46.43
61136;BME280;47021;51.340;12.432;2022-07-29T03:12:54;100180.97;;;19.78;46.89
61136;BME280;47021;51.340;12.432;2022-07-29T03:15:27;100175.66;;;19.78;46.83
61136;BME280;47021;51.340;12.432;2022-07-29T03:17:55;100176.50;;;19.79;46.75
61136;BME280;47021;51.340;12.432;2022-07-29T03:20:21;100173.50;;;19.67;47.31
61136;BME280;47021;51.340;12.432;2022-07-29T03:22:49;100177.28;;;19.43;47.92
61136;BME280;47021;51.340;12.432;2022-07-29T03:25:40;100185.84;;;19.45;47.97
61136;BME280;47021;51.340;12.432;2022-07-29T03:28:13;100183.06;;;19.24;47.97
61136;BME280;47021;51.340;12.432;2022-07-29T03:35:41;100183.38;;;19.73;47.02
61136;BME280;47021;51.340;12.432;2022-07-29T03:38:07;100183.00;;;19.61;47.25
61136;BME280;47021;51.340;12.432;2022-07-29T03:40:40;100186.28;;;19.63;47.43
61136;BME280;47021;51.340;12.432;2022-07-29T03:43:09;100186.09;;;19.50;47.86
61136;BME280;47021;51.340;12.432;2022-07-29T03:45:37;100184.19;;;19.44;47.96
61136;BME280;47021;51.340;12.432;2022-07-29T03:48:08;100187.03;;;19.43;47.67
61136;BME280;47021;51.340;12.432;2022-07-29T03:50:40;100177.34;;;19.35;48.24
61136;BME280;47021;51.340;12.432;2022-07-29T03:53:06;100186.59;;;19.17;48.75
61136;BME280;47021;51.340;12.432;2022-07-29T03:55:37;100186.75;;;19.38;47.95
61136;BME280;47021;51.340;12.432;2022-07-29T03:58:05;100189.19;;;19.25;48.14
61136;BME280;47021;51.340;12.432;2022-07-29T04:00:35;100192.06;;;19.38;48.01
61136;BME280;47021;51.340;12.432;2022-07-29T04:03:02;100201.34;;;19.48;47.67
61136;BME280;47021;51.340;12.432;2022-07-29T04:05:29;100200.81;;;19.53;47.70
61136;BME280;47021;51.340;12.432;2022-07-29T04:07:56;100194.09;;;19.13;48.87
61136;BME280;47021;51.340;12.432;2022-07-29T04:10:29;100196.59;;;19.44;47.93
61136;BME280;47021;51.340;12.432;2022-07-29T04:12:54;100190.81;;;19.11;48.58
61136;BME280;47021;51.340;12.432;2022-07-29T04:15:19;100200.81;;;19.01;48.88
61136;BME280;47021;51.340;12.432;2022-07-29T04:18:09;100201.06;;;19.29;48.48
61136;BME280;47021;51.340;12.432;2022-07-29T04:20:35;100204.47;;;19.52;47.95
61136;BME280;47021;51.340;12.432;2022-07-29T04:23:00;100202.19;;;19.63;47.58
61136;BME280;47021;51.340;12.432;2022-07-29T04:25:26;100203.59;;;19.22;48.67
61136;BME280;47021;51.340;12.432;2022-07-29T04:27:51;100205.53;;;19.14;48.82
61136;BME280;47021;51.340;12.432;2022-07-29T04:30:19;100202.34;;;19.18;49.01
61136;BME280;47021;51.340;12.432;2022-07-29T04:32:44;100201.69;;;19.31;48.49
61136;BME280;47021;51.340;12.432;2022-07-29T04:35:12;100198.69;;;19.34;47.86
61136;BME280;47021;51.340;12.432;2022-07-29T04:37:37;100208.44;;;19.33;48.25
61136;BME280;47021;51.340;12.432;2022-07-29T04:40:12;100209.06;;;19.43;48.63
61136;BME280;47021;51.340;12.432;2022-07-29T04:42:43;100207.50;;;19.63;48.05
61136;BME280;47021;51.340;12.432;2022-07-29T04:45:10;100206.28;;;19.51;48.16
61136;BME280;47021;51.340;12.432;2022-07-29T04:47:37;100207.66;;;19.91;47.55
61136;BME280;47021;51.340;12.432;2022-07-29T04:50:05;100202.75;;;19.59;47.65
61136;BME280;47021;51.340;12.432;2022-07-29T04:52:31;100214.78;;;19.76;47.69
61136;BME280;47021;51.340;12.432;2022-07-29T04:54:57;100204.81;;;19.93;47.46
61136;BME280;47021;51.340;12.432;2022-07-29T04:57:23;100210.97;;;19.64;47.97
61136;BME280;47021;51.340;12.432;2022-07-29T04:59:49;100206.63;;;19.92;47.38
61136;BME280;47021;51.340;12.432;2022-07-29T05:02:14;100204.88;;;20.14;46.74
61136;BME280;47021;51.340;12.432;2022-07-29T05:04:40;100203.56;;;20.24;46.59
61136;BME280;47021;51.340;12.432;2022-07-29T05:07:09;100197.69;;;19.93;47.42
61136;BME280;47021;51.340;12.432;2022-07-29T05:19:06;100187.47;;;20.47;46.06
61136;BME280;47021;51.340;12.432;2022-07-29T05:24:26;100191.78;;;20.12;46.57
61136;BME280;47021;51.340;12.432;2022-07-29T05:29:59;100204.16;;;20.83;45.67
61136;BME280;47021;51.340;12.432;2022-07-29T05:32:28;100198.88;;;20.62;46.04
61136;BME280;47021;51.340;12.432;2022-07-29T05:38:16;100206.69;;;21.13;44.76
61136;BME280;47021;51.340;12.432;2022-07-29T05:44:04;100192.22;;;20.73;45.46
61136;BME280;47021;51.340;12.432;2022-07-29T05:58:58;100202.84;;;20.73;46.13
61136;BME280;47021;51.340;12.432;2022-07-29T06:01:26;100197.31;;;20.95;45.61
61136;BME280;47021;51.340;12.432;2022-07-29T06:04:01;100199.84;;;21.03;45.19
61136;BME280;47021;51.340;12.432;2022-07-29T06:09:24;100187.94;;;21.21;44.91
61136;BME280;47021;51.340;12.432;2022-07-29T06:12:08;100192.00;;;20.95;45.45
61136;BME280;47021;51.340;12.432;2022-07-29T06:17:43;100187.63;;;21.09;45.49
61136;BME280;47021;51.340;12.432;2022-07-29T06:26:28;100184.25;;;21.49;44.64
61136;BME280;47021;51.340;12.432;2022-07-29T06:28:56;100190.91;;;21.11;45.75
61136;BME280;47021;51.340;12.432;2022-07-29T06:31:48;100182.31;;;21.09;45.57
61136;BME280;47021;51.340;12.432;2022-07-29T06:34:21;100179.53;;;21.17;45.17
61136;BME280;47021;51.340;12.432;2022-07-29T06:36:57;100171.66;;;21.71;44.43
61136;BME280;47021;51.340;12.432;2022-07-29T06:39:25;100184.13;;;21.36;44.31
61136;BME280;47021;51.340;12.432;2022-07-29T06:42:00;100184.25;;;21.49;45.15
61136;BME280;47021;51.340;12.432;2022-07-29T06:44:46;100184.13;;;21.70;44.78
61136;BME280;47021;51.340;12.432;2022-07-29T06:50:17;100180.44;;;22.12;43.74
61136;BME280;47021;51.340;12.432;2022-07-29T06:53:14;100177.72;;;21.93;44.13
61136;BME280;47021;51.340;12.432;2022-07-29T06:56:10;100180.28;;;22.27;43.31
61136;BME280;47021;51.340;12.432;2022-07-29T07:04:43;100171.97;;;23.02;42.01
61136;BME280;47021;51.340;12.432;2022-07-29T07:07:13;100180.38;;;23.89;40.33
61136;BME280;47021;51.340;12.432;2022-07-29T07:12:33;100187.78;;;23.87;39.27
61136;BME280;47021;51.340;12.432;2022-07-29T07:15:01;100190.97;;;24.46;38.93
61136;BME280;47021;51.340;12.432;2022-07-29T07:23:28;100178.97;;;24.31;38.78
61136;BME280;47021;51.340;12.432;2022-07-29T07:26:16;100181.41;;;24.32;39.68
61136;BME280;47021;51.340;12.432;2022-07-29T07:31:57;100179.47;;;24.46;39.32
61136;BME280;47021;51.340;12.432;2022-07-29T07:34:45;100178.41;;;24.16;39.50
61136;BME280;47021;51.340;12.432;2022-07-29T07:37:54;100181.41;;;23.88;39.66
61136;BME280;47021;51.340;12.432;2022-07-29T07:59:19;100185.44;;;25.83;36.44
61136;BME280;47021;51.340;12.432;2022-07-29T08:11:23;100177.28;;;25.35;37.65
61136;BME280;47021;51.340;12.432;2022-07-29T08:16:50;100180.16;;;26.06;36.12
61136;BME280;47021;51.340;12.432;2022-07-29T08:29:32;100157.56;;;26.73;35.23
61136;BME280;47021;51.340;12.432;2022-07-29T08:38:26;100152.72;;;26.40;36.36
61136;BME280;47021;51.340;12.432;2022-07-29T08:45:04;100139.44;;;27.10;34.54
61136;BME280;47021;51.340;12.432;2022-07-29T09:00:46;100129.50;;;28.91;31.88
61136;BME280;47021;51.340;12.432;2022-07-29T09:07:03;100114.03;;;28.65;31.89
61136;BME280;47021;51.340;12.432;2022-07-29T09:13:22;100133.06;;;28.30;32.73
61136;BME280;47021;51.340;12.432;2022-07-29T09:16:12;100131.44;;;28.96;31.84
61136;BME280;47021;51.340;12.432;2022-07-29T09:18:47;100116.31;;;29.71;31.09
61136;BME280;47021;51.340;12.432;2022-07-29T09:21:33;100120.97;;;29.32;31.43
61136;BME280;47021;51.340;12.432;2022-07-29T09:33:42;100121.94;;;29.91;30.10
61136;BME280;47021;51.340;12.432;2022-07-29T10:02:31;100123.59;;;29.11;31.02
61136;BME280;47021;51.340;12.432;2022-07-29T10:23:23;100093.13;;;30.19;29.35
61136;BME280;47021;51.340;12.432;2022-07-29T10:26:06;100078.13;;;30.28;29.41
61136;BME280;47021;51.340;12.432;2022-07-29T10:28:43;100088.91;;;30.59;29.29
61136;BME280;47021;51.340;12.432;2022-07-29T10:31:35;100088.91;;;30.59;28.67
61136;BME280;47021;51.340;12.432;2022-07-29T10:37:33;100079.78;;;30.65;28.27
61136;BME280;47021;51.340;12.432;2022-07-29T10:40:35;100084.69;;;31.15;27.97
61136;BME280;47021;51.340;12.432;2022-07-29T10:43:17;100072.75;;;31.68;27.22
61136;BME280;47021;51.340;12.432;2022-07-29T10:45:46;100076.69;;;31.40;28.13
61136;BME280;47021;51.340;12.432;2022-07-29T10:48:12;100077.38;;;31.78;26.06
61136;BME280;47021;51.340;12.432;2022-07-29T10:50:57;100068.00;;;32.21;25.62
61136;BME280;47021;51.340;12.432;2022-07-29T10:53:45;100071.19;;;31.82;26.28
61136;BME280;47021;51.340;12.432;2022-07-29T10:56:31;100067.94;;;31.80;26.62
61136;BME280;47021;51.340;12.432;2022-07-29T11:01:44;100067.16;;;32.00;25.59
61136;BME280;47021;51.340;12.432;2022-07-29T11:04:12;100064.22;;;32.47;25.00
61136;BME280;47021;51.340;12.432;2022-07-29T11:09:31;100057.97;;;32.82;24.76
61136;BME280;47021;51.340;12.432;2022-07-29T11:11:59;100061.16;;;32.99;24.83
61136;BME280;47021;51.340;12.432;2022-07-29T11:14:59;100066.31;;;32.90;24.31
61136;BME280;47021;51.340;12.432;2022-07-29T11:17:24;100061.16;;;32.99;24.34
61136;BME280;47021;51.340;12.432;2022-07-29T11:19:50;100051.94;;;33.74;23.74
61136;BME280;47021;51.340;12.432;2022-07-29T11:22:35;100051.69;;;32.96;24.57
61136;BME280;47021;51.340;12.432;2022-07-29T11:25:13;100052.78;;;32.95;24.64
61136;BME280;47021;51.340;12.432;2022-07-29T11:27:42;100053.84;;;32.99;25.02
61136;BME280;47021;51.340;12.432;2022-07-29T11:30:08;100052.59;;;33.46;24.62
61136;BME280;47021;51.340;12.432;2022-07-29T11:32:39;100056.03;;;33.07;24.94
61136;BME280;47021;51.340;12.432;2022-07-29T11:35:18;100052.84;;;33.49;24.04
61136;BME280;47021;51.340;12.432;2022-07-29T11:37:46;100052.06;;;33.49;24.39
61136;BME280;47021;51.340;12.432;2022-07-29T11:40:17;100049.50;;;34.11;23.23
61136;BME280;47021;51.340;12.432;2022-07-29T11:42:45;100040.88;;;34.66;22.94
61136;BME280;47021;51.340;12.432;2022-07-29T11:45:18;100037.56;;;34.12;23.76
61136;BME280;47021;51.340;12.432;2022-07-29T11:47:49;100036.91;;;34.25;23.61
61136;BME280;47021;51.340;12.432;2022-07-29T11:50:26;100044.38;;;33.66;24.66
61136;BME280;47021;51.340;12.432;2022-07-29T11:52:51;100034.34;;;34.10;24.52
61136;BME280;47021;51.340;12.432;2022-07-29T11:55:20;100034.00;;;34.17;23.89
61136;BME280;47021;51.340;12.432;2022-07-29T11:57:47;100029.59;;;33.43;24.34
61136;BME280;47021;51.340;12.432;2022-07-29T12:00:21;100030.25;;;33.15;24.45
61136;BME280;47021;51.340;12.432;2022-07-29T12:02:52;100023.38;;;33.37;25.22
61136;BME280;47021;51.340;12.432;2022-07-29T12:05:18;100027.97;;;32.58;25.60
61136;BME280;47021;51.340;12.432;2022-07-29T12:07:44;100023.63;;;32.67;25.30
61136;BME280;47021;51.340;12.432;2022-07-29T12:10:16;100025.53;;;32.66;25.94
61136;BME280;47021;51.340;12.432;2022-07-29T12:12:41;100014.44;;;32.63;25.40
61136;BME280;47021;51.340;12.432;2022-07-29T12:15:15;100006.81;;;32.85;25.57
61136;BME280;47021;51.340;12.432;2022-07-29T12:17:43;100005.50;;;32.67;25.94
61136;BME280;47021;51.340;12.432;2022-07-29T12:20:11;100002.88;;;33.21;24.90
61136;BME280;47021;51.340;12.432;2022-07-29T12:22:40;99994.47;;;33.72;25.11
61136;BME280;47021;51.340;12.432;2022-07-29T12:25:10;99998.75;;;33.34;25.24
61136;BME280;47021;51.340;12.432;2022-07-29T12:27:36;99992.91;;;33.66;24.80
61136;BME280;47021;51.340;12.432;2022-07-29T12:30:05;100003.91;;;33.35;25.55
61136;BME280;47021;51.340;12.432;2022-07-29T12:32:37;99997.19;;;33.72;25.66
61136;BME280;47021;51.340;12.432;2022-07-29T12:35:12;99993.69;;;35.10;23.47
61136;BME280;47021;51.340;12.432;2022-07-29T12:37:40;99985.72;;;34.95;23.33
61136;BME280;47021;51.340;12.432;2022-07-29T12:40:08;99981.81;;;34.30;24.50
61136;BME280;47021;51.340;12.432;2022-07-29T12:42:36;99986.16;;;34.31;24.11
61136;BME280;47021;51.340;12.432;2022-07-29T12:45:02;99974.00;;;34.75;23.62
61136;BME280;47021;51.340;12.432;2022-07-29T12:47:32;99989.91;;;35.11;23.68
61136;BME280;47021;51.340;12.432;2022-07-29T12:50:13;99981.44;;;35.55;23.38
61136;BME280;47021;51.340;12.432;2022-07-29T12:52:42;99986.75;;;35.60;22.94
61136;BME280;47021;51.340;12.432;2022-07-29T12:55:10;99979.59;;;35.50;23.02
61136;BME280;47021;51.340;12.432;2022-07-29T12:57:49;99980.66;;;35.86;22.76
61136;BME280;47021;51.340;12.432;2022-07-29T13:00:16;99978.53;;;36.16;22.45
61136;BME280;47021;51.340;12.432;2022-07-29T13:02:42;99978.22;;;36.17;22.62
61136;BME280;47021;51.340;12.432;2022-07-29T13:05:09;99979.53;;;35.87;22.80
61136;BME280;47021;51.340;12.432;2022-07-29T13:07:42;99970.47;;;36.10;22.56
61136;BME280;47021;51.340;12.432;2022-07-29T13:13:01;99974.22;;;36.15;22.13
61136;BME280;47021;51.340;12.432;2022-07-29T13:15:28;99983.97;;;35.27;22.29
61136;BME280;47021;51.340;12.432;2022-07-29T13:17:54;99976.69;;;35.41;23.14
61136;BME280;47021;51.340;12.432;2022-07-29T13:20:24;99975.19;;;35.54;23.03
61136;BME280;47021;51.340;12.432;2022-07-29T13:22:50;99973.75;;;35.75;22.64
61136;BME280;47021;51.340;12.432;2022-07-29T13:25:23;99968.88;;;35.91;22.61
61136;BME280;47021;51.340;12.432;2022-07-29T13:27:49;99971.16;;;36.02;22.66
61136;BME280;47021;51.340;12.432;2022-07-29T13:30:18;99967.91;;;35.68;21.84
61136;BME280;47021;51.340;12.432;2022-07-29T13:32:44;99964.75;;;35.61;21.99
61136;BME280;47021;51.340;12.432;2022-07-29T13:35:11;99960.78;;;36.04;21.82
61136;BME280;47021;51.340;12.432;2022-07-29T13:37:37;99964.53;;;35.90;21.91
61136;BME280;47021;51.340;12.432;2022-07-29T13:40:10;99964.63;;;36.31;21.64
61136;BME280;47021;51.340;12.432;2022-07-29T13:42:36;99954.31;;;36.46;21.47
61136;BME280;47021;51.340;12.432;2022-07-29T13:45:15;99961.91;;;35.53;22.64
61136;BME280;47021;51.340;12.432;2022-07-29T13:47:44;99953.56;;;34.36;23.92
61136;BME280;47021;51.340;12.432;2022-07-29T13:50:09;99954.47;;;34.50;23.91
61136;BME280;47021;51.340;12.432;2022-07-29T13:52:40;99945.19;;;35.22;22.51
61136;BME280;47021;51.340;12.432;2022-07-29T13:55:07;99944.41;;;35.59;22.44
61136;BME280;47021;51.340;12.432;2022-07-29T13:57:34;99957.31;;;35.11;23.29
61136;BME280;47021;51.340;12.432;2022-07-29T14:00:00;99950.38;;;34.29;24.44
61136;BME280;47021;51.340;12.432;2022-07-29T14:02:27;99957.41;;;33.23;25.43
61136;BME280;47021;51.340;12.432;2022-07-29T14:04:59;99954.00;;;33.47;25.11
61136;BME280;47021;51.340;12.432;2022-07-29T14:07:29;99955.88;;;32.97;25.84
61136;BME280;47021;51.340;12.432;2022-07-29T14:09:56;99948.78;;;33.60;25.87
61136;BME280;47021;51.340;12.432;2022-07-29T14:12:23;99946.53;;;33.28;25.45
61136;BME280;47021;51.340;12.432;2022-07-29T14:14:48;99946.50;;;33.33;25.33
61136;BME280;47021;51.340;12.432;2022-07-29T14:17:17;99943.22;;;33.41;25.56
61136;BME280;47021;51.340;12.432;2022-07-29T14:19:44;99936.88;;;33.51;25.02
61136;BME280;47021;51.340;12.432;2022-07-29T14:22:09;99939.56;;;34.24;24.14
61136;BME280;47021;51.340;12.432;2022-07-29T14:24:35;99931.00;;;34.64;24.25
61136;BME280;47021;51.340;12.432;2022-07-29T14:27:01;99928.06;;;34.60;24.81
61136;BME280;47021;51.340;12.432;2022-07-29T14:29:26;99934.47;;;33.55;25.68
61136;BME280;47021;51.340;12.432;2022-07-29T14:31:53;99936.78;;;33.32;25.49
61136;BME280;47021;51.340;12.432;2022-07-29T14:34:19;99927.41;;;33.54;24.98
61136;BME280;47021;51.340;12.432;2022-07-29T14:36:47;99923.50;;;33.70;25.58
61136;BME280;47021;51.340;12.432;2022-07-29T14:39:13;99930.03;;;33.30;25.85
61136;BME280;47021;51.340;12.432;2022-07-29T14:41:42;99927.47;;;33.00;26.24
61136;BME280;47021;51.340;12.432;2022-07-29T14:44:07;99918.22;;;33.50;25.75
61136;BME280;47021;51.340;12.432;2022-07-29T14:46:35;99931.16;;;33.63;25.25
61136;BME280;47021;51.340;12.432;2022-07-29T14:49:01;99924.63;;;34.26;24.36
61136;BME280;47021;51.340;12.432;2022-07-29T14:51:26;99937.59;;;34.29;24.87
61136;BME280;47021;51.340;12.432;2022-07-29T14:53:58;99926.31;;;33.60;25.80
61136;BME280;47021;51.340;12.432;2022-07-29T14:56:23;99935.63;;;33.38;26.11
61136;BME280;47021;51.340;12.432;2022-07-29T14:58:49;99924.94;;;33.62;25.49
61136;BME280;47021;51.340;12.432;2022-07-29T15:01:26;99935.31;;;33.45;25.95
61136;BME280;47021;51.340;12.432;2022-07-29T15:03:53;99937.56;;;33.33;25.83
61136;BME280;47021;51.340;12.432;2022-07-29T15:06:18;99932.28;;;33.52;25.84
61136;BME280;47021;51.340;12.432;2022-07-29T15:08:44;99930.25;;;34.06;25.68
61136;BME280;47021;51.340;12.432;2022-07-29T15:11:16;99926.38;;;33.83;26.00
61136;BME280;47021;51.340;12.432;2022-07-29T15:13:44;99924.97;;;33.57;25.63
61136;BME280;47021;51.340;12.432;2022-07-29T15:16:11;99930.75;;;33.79;26.21
61136;BME280;47021;51.340;12.432;2022-07-29T15:18:37;99925.84;;;34.15;25.08
61136;BME280;47021;51.340;12.432;2022-07-29T15:21:05;99926.03;;;33.12;26.75
61136;BME280;47021;51.340;12.432;2022-07-29T15:23:30;99921.25;;;33.43;26.43
61136;BME280;47021;51.340;12.432;2022-07-29T15:25:56;99920.91;;;33.88;25.97
61136;BME280;47021;51.340;12.432;2022-07-29T15:28:25;99916.25;;;33.60;26.25
61136;BME280;47021;51.340;12.432;2022-07-29T15:30:51;99926.34;;;33.50;26.64
61136;BME280;47021;51.340;12.432;2022-07-29T15:33:19;99912.31;;;33.42;26.26
61136;BME280;47021;51.340;12.432;2022-07-29T15:35:51;99904.94;;;34.16;26.12
61136;BME280;47021;51.340;12.432;2022-07-29T15:38:17;99911.41;;;33.62;26.29
61136;BME280;47021;51.340;12.432;2022-07-29T15:40:44;99908.50;;;33.82;25.97
61136;BME280;47021;51.340;12.432;2022-07-29T15:43:10;99918.78;;;33.47;26.48
61136;BME280;47021;51.340;12.432;2022-07-29T15:45:39;99909.03;;;33.07;27.21
61136;BME280;47021;51.340;12.432;2022-07-29T15:48:08;99945.09;;;32.87;28.52
61136;BME280;47021;51.340;12.432;2022-07-29T15:50:34;99960.63;;;32.61;30.35
61136;BME280;47021;51.340;12.432;2022-07-29T15:53:01;99972.31;;;32.17;32.27
61136;BME280;47021;51.340;12.432;2022-07-29T15:55:29;99965.03;;;31.72;32.65
61136;BME280;47021;51.340;12.432;2022-07-29T15:57:54;99967.44;;;31.53;33.85
61136;BME280;47021;51.340;12.432;2022-07-29T16:00:19;99963.41;;;31.81;33.82
61136;BME280;47021;51.340;12.432;2022-07-29T16:02:46;99960.66;;;31.46;34.23
61136;BME280;47021;51.340;12.432;2022-07-29T16:05:11;99965.47;;;31.38;34.86
61136;BME280;47021;51.340;12.432;2022-07-29T16:07:37;99967.41;;;31.43;34.70
61136;BME280;47021;51.340;12.432;2022-07-29T16:10:02;99957.88;;;31.20;35.45
61136;BME280;47021;51.340;12.432;2022-07-29T16:12:28;99961.81;;;30.93;35.75
61136;BME280;47021;51.340;12.432;2022-07-29T16:14:53;99958.03;;;30.89;35.68
61136;BME280;47021;51.340;12.432;2022-07-29T16:17:21;99960.84;;;31.29;35.08
61136;BME280;47021;51.340;12.432;2022-07-29T16:19:47;99958.59;;;30.44;36.53
61136;BME280;47021;51.340;12.432;2022-07-29T16:22:16;99952.13;;;30.92;36.33
61136;BME280;47021;51.340;12.432;2022-07-29T16:24:44;99959.88;;;30.83;36.23
61136;BME280;47021;51.340;12.432;2022-07-29T16:27:09;99953.72;;;30.88;36.20
61136;BME280;47021;51.340;12.432;2022-07-29T16:29:37;99954.19;;;30.28;37.35
61136;BME280;47021;51.340;12.432;2022-07-29T16:32:05;99946.31;;;30.63;37.18
61136;BME280;47021;51.340;12.432;2022-07-29T16:34:31;99951.47;;;30.28;38.24
61136;BME280;47021;51.340;12.432;2022-07-29T16:36:57;99950.06;;;30.20;38.36
61136;BME280;47021;51.340;12.432;2022-07-29T16:39:22;99944.31;;;30.48;37.78
61136;BME280;47021;51.340;12.432;2022-07-29T16:41:49;99934.56;;;30.37;38.55
61136;BME280;47021;51.340;12.432;2022-07-29T16:44:18;99936.75;;;30.40;38.02